Time;durP1;ratioP1;P1;durP2;ratioP2;P2;SDS_P1;SDS_P2;PMS_P1;PMS_P2;Temp;Humidity;BMP_temperature;BMP_pressure;BME280_temperature;BME280_humidity;BME280_pressure;Samples;Min_cycle;Max_cycle;Signal;HPM_P1;HPM_P2
2022/01/31 00:00:16;;;;;;;10.95;3.40;;;2.60;1.00;;;;;;5055072;28;20243;-75
2022/01/31 00:02:44;;;;;;;11.70;3.00;;;2.60;1.00;;;;;;5056472;28;20634;-75
2022/01/31 00:05:10;;;;;;;11.82;3.17;;;;;;;;;;5070204;28;20701;-75
2022/01/31 00:07:36;;;;;;;11.65;3.30;;;2.70;1.00;;;;;;5058724;28;20251;-75
2022/01/31 00:10:07;;;;;;;10.63;1.95;;;2.70;1.00;;;;;;5070248;28;20206;-75
2022/01/31 00:12:43;;;;;;;13.75;3.35;;;;;;;;;;5061036;28;20183;-75
2022/01/31 00:15:09;;;;;;;10.82;3.38;;;2.80;1.00;;;;;;5064736;28;20524;-75
2022/01/31 00:17:35;;;;;;;13.50;2.77;;;2.80;1.00;;;;;;5053806;28;20180;-74
2022/01/31 00:20:01;;;;;;;11.47;3.53;;;;;;;;;;5072050;28;20504;-74
2022/01/31 00:22:26;;;;;;;14.90;2.80;;;2.90;1.00;;;;;;5077289;28;20575;-74
2022/01/31 00:24:52;;;;;;;9.37;2.70;;;;;;;;;;5064800;28;20175;-75
2022/01/31 00:27:18;;;;;;;8.70;2.93;;;3.00;1.00;;;;;;5060051;28;20224;-75
2022/01/31 00:29:44;;;;;;;10.40;3.10;;;3.00;1.00;;;;;;5069589;28;20484;-76
2022/01/31 00:32:09;;;;;;;7.37;3.00;;;3.00;1.00;;;;;;5053623;28;20638;-75
2022/01/31 00:34:35;;;;;;;9.07;3.13;;;3.00;1.00;;;;;;5055634;28;20171;-75
2022/01/31 00:37:00;;;;;;;3.60;2.43;;;3.10;1.00;;;;;;5061312;28;20175;-75
2022/01/31 00:39:26;;;;;;;4.80;1.93;;;3.10;1.00;;;;;;5059030;28;20240;-75
2022/01/31 00:41:52;;;;;;;9.40;3.17;;;;;;;;;;5059539;28;20186;-75
2022/01/31 00:44:23;;;;;;;2.88;1.65;;;3.20;1.00;;;;;;5059962;28;20523;-75
2022/01/31 00:46:54;;;;;;;5.35;2.55;;;3.20;1.00;;;;;;5054264;28;20168;-75
2022/01/31 00:51:58;;;;;;;7.85;2.45;;;3.20;1.00;;;;;;5055660;28;20183;-75
2022/01/31 00:54:24;;;;;;;6.32;2.58;;;3.20;1.00;;;;;;5071425;28;20320;-75
2022/01/31 00:56:50;;;;;;;6.27;2.37;;;3.20;1.00;;;;;;5058268;28;20226;-75
2022/01/31 00:59:17;;;;;;;2.80;1.70;;;3.30;1.00;;;;;;5071998;28;20641;-75
2022/01/31 01:01:42;;;;;;;5.57;1.70;;;3.30;1.00;;;;;;5061892;28;20255;-75
2022/01/31 01:04:08;;;;;;;3.10;2.00;;;3.40;1.00;;;;;;5073444;28;20311;-75
2022/01/31 01:06:34;;;;;;;7.17;2.77;;;3.50;1.00;;;;;;5066429;28;20418;-75
2022/01/31 01:08:59;;;;;;;4.57;1.80;;;3.50;1.00;;;;;;5064512;28;20206;-75
2022/01/31 01:11:25;;;;;;;6.83;2.10;;;3.50;1.00;;;;;;5069441;28;20176;-75
2022/01/31 01:13:51;;;;;;;2.27;1.60;;;3.40;1.00;;;;;;5075956;28;20633;-76
2022/01/31 01:16:16;;;;;;;4.27;1.90;;;3.40;1.00;;;;;;5080767;28;20183;-75
2022/01/31 01:18:42;;;;;;;4.83;2.10;;;3.40;1.00;;;;;;5066525;28;20241;-75
2022/01/31 01:21:08;;;;;;;8.73;2.60;;;3.30;1.00;;;;;;5069067;28;20186;-75
2022/01/31 01:23:33;;;;;;;5.67;1.97;;;3.30;1.00;;;;;;5067207;28;20187;-75
2022/01/31 01:25:59;;;;;;;10.37;2.60;;;3.30;1.00;;;;;;5058222;28;20540;-75
2022/01/31 01:28:26;;;;;;;5.00;2.07;;;3.30;1.00;;;;;;5062101;28;20199;-75
2022/01/31 01:30:51;;;;;;;7.45;2.25;;;3.30;1.00;;;;;;5070686;28;20210;-75
2022/01/31 01:33:20;;;;;;;3.63;2.40;;;3.20;1.00;;;;;;5072320;28;20678;-74
2022/01/31 01:35:48;;;;;;;4.10;2.10;;;3.10;1.00;;;;;;5070756;28;20174;-74
2022/01/31 01:38:16;;;;;;;9.40;2.72;;;3.10;1.00;;;;;;5063927;28;20214;-74
2022/01/31 01:40:43;;;;;;;5.60;1.90;;;3.10;1.00;;;;;;5065707;28;20202;-74
2022/01/31 01:43:09;;;;;;;12.97;3.10;;;3.20;1.00;;;;;;5073120;28;20251;-74
2022/01/31 01:45:38;;;;;;;14.30;2.85;;;3.20;1.00;;;;;;5073090;28;20413;-74
2022/01/31 01:48:06;;;;;;;3.38;2.20;;;3.20;1.00;;;;;;5055156;28;20177;-74
2022/01/31 01:50:32;;;;;;;8.02;2.25;;;3.20;1.00;;;;;;5053867;28;20180;-74
2022/01/31 01:53:00;;;;;;;7.70;2.33;;;3.30;1.00;;;;;;5066228;28;20197;-74
2022/01/31 01:55:26;;;;;;;21.48;2.42;;;3.30;1.00;;;;;;5064719;28;20584;-74
2022/01/31 01:57:51;;;;;;;3.80;1.77;;;3.30;1.00;;;;;;5063180;28;20290;-74
2022/01/31 02:00:24;;;;;;;4.27;2.23;;;;;;;;;;5067865;28;20171;-74
2022/01/31 02:02:51;;;;;;;2.67;1.67;;;3.40;1.00;;;;;;5062565;28;20262;-74
2022/01/31 02:05:17;;;;;;;6.65;2.15;;;3.40;1.00;;;;;;5063626;28;20445;-74
2022/01/31 02:07:43;;;;;;;5.97;3.40;;;3.50;1.00;;;;;;5067394;28;20522;-74
2022/01/31 02:10:09;;;;;;;6.97;2.57;;;3.50;1.00;;;;;;5061978;28;20185;-74
2022/01/31 02:12:44;;;;;;;2.65;1.90;;;3.40;1.00;;;;;;5073576;28;20788;-74
2022/01/31 02:15:11;;;;;;;9.60;2.50;;;3.40;1.00;;;;;;5061286;28;20656;-74
2022/01/31 02:17:37;;;;;;;5.50;2.50;;;3.50;1.00;;;;;;5075383;28;20183;-74
2022/01/31 02:20:05;;;;;;;6.57;2.08;;;3.60;1.00;;;;;;5062740;28;20191;-74
2022/01/31 02:22:31;;;;;;;4.77;2.23;;;3.60;1.00;;;;;;5073355;28;20535;-74
2022/01/31 02:24:57;;;;;;;6.87;3.43;;;3.60;1.00;;;;;;5064171;28;20425;-74
2022/01/31 02:27:31;;;;;;;7.50;2.50;;;3.70;1.00;;;;;;5063877;28;20258;-75
2022/01/31 02:29:57;;;;;;;2.13;1.92;;;3.70;1.00;;;;;;5056712;28;20654;-75
2022/01/31 02:32:23;;;;;;;9.27;2.57;;;3.70;1.00;;;;;;5070239;28;20595;-74
2022/01/31 02:34:50;;;;;;;18.15;2.38;;;3.70;1.00;;;;;;5074532;28;20432;-74
2022/01/31 02:37:17;;;;;;;3.65;1.98;;;;;;;;;;5055771;28;20179;-74
2022/01/31 02:39:43;;;;;;;7.90;3.08;;;3.80;1.00;;;;;;5055908;28;20198;-74
2022/01/31 02:42:08;;;;;;;4.40;2.67;;;3.90;1.00;;;;;;5060204;28;20557;-74
2022/01/31 02:44:38;;;;;;;3.23;2.57;;;3.90;1.00;;;;;;5074239;28;20413;-74
2022/01/31 02:47:09;;;;;;;8.05;2.63;;;3.90;1.00;;;;;;5061708;28;20426;-74
2022/01/31 02:49:44;;;;;;;5.50;2.92;;;3.90;1.00;;;;;;5065032;28;20211;-74
2022/01/31 02:52:13;;;;;;;6.40;2.17;;;3.90;1.00;;;;;;5059111;28;20652;-74
2022/01/31 02:54:38;;;;;;;4.47;2.20;;;4.00;1.00;;;;;;5070111;28;20273;-74
2022/01/31 02:57:04;;;;;;;8.77;3.00;;;4.00;1.00;;;;;;5057736;28;20524;-74
2022/01/31 02:59:31;;;;;;;7.80;2.20;;;4.10;1.00;;;;;;5065047;28;20203;-74
2022/01/31 03:01:57;;;;;;;2.30;2.10;;;4.10;1.00;;;;;;5059195;28;20202;-74
2022/01/31 03:04:23;;;;;;;16.27;3.00;;;4.10;1.00;;;;;;5075535;28;20219;-75
2022/01/31 03:06:49;;;;;;;17.20;2.40;;;4.20;1.00;;;;;;5070941;28;20409;-75
2022/01/31 03:09:15;;;;;;;17.52;2.88;;;4.20;1.00;;;;;;5067990;28;20187;-75
2022/01/31 03:11:42;;;;;;;4.85;1.70;;;4.20;1.00;;;;;;5059315;28;20233;-75
2022/01/31 03:14:09;;;;;;;9.30;2.20;;;4.30;1.00;;;;;;5070090;28;20645;-75
2022/01/31 03:16:40;;;;;;;5.53;3.10;;;;;;;;;;5060529;28;20440;-75
2022/01/31 03:19:06;;;;;;;7.95;2.38;;;;;;;;;;5062655;28;20457;-74
2022/01/31 03:21:32;;;;;;;5.00;2.80;;;4.30;1.00;;;;;;5071331;28;20171;-74
2022/01/31 03:23:57;;;;;;;3.03;1.77;;;4.30;1.00;;;;;;5065667;28;20919;-75
2022/01/31 03:26:23;;;;;;;4.63;2.90;;;4.30;1.00;;;;;;5061391;28;20634;-75
2022/01/31 03:28:49;;;;;;;3.50;2.00;;;4.30;1.00;;;;;;5064521;28;20179;-75
2022/01/31 03:31:18;;;;;;;3.07;2.07;;;4.20;1.00;;;;;;5059400;28;20183;-74
2022/01/31 03:33:46;;;;;;;2.73;1.73;;;4.20;1.00;;;;;;5073683;28;20409;-75
2022/01/31 03:36:12;;;;;;;6.27;2.00;;;;;;;;;;5055200;28;20641;-75
2022/01/31 03:38:40;;;;;;;3.07;1.67;;;4.20;1.00;;;;;;5037563;28;20557;-75
2022/01/31 03:41:07;;;;;;;11.93;2.00;;;4.30;1.00;;;;;;5049286;28;20429;-75
2022/01/31 03:43:33;;;;;;;4.60;2.40;;;;;;;;;;5066165;28;20412;-75
2022/01/31 03:45:59;;;;;;;5.30;1.83;;;4.30;1.00;;;;;;5062491;28;20179;-75
2022/01/31 03:48:27;;;;;;;5.40;1.80;;;4.20;1.00;;;;;;5073375;28;20413;-74
2022/01/31 03:50:53;;;;;;;4.83;2.10;;;;;;;;;;5063183;28;20180;-74
2022/01/31 03:53:19;;;;;;;6.27;1.20;;;4.20;1.00;;;;;;5071591;28;20796;-74
2022/01/31 03:55:45;;;;;;;2.60;1.80;;;;;;;;;;5057165;28;20414;-74
2022/01/31 03:58:11;;;;;;;4.27;1.60;;;;;;;;;;5058284;28;20198;-74
2022/01/31 04:00:37;;;;;;;7.10;1.63;;;4.20;1.00;;;;;;5071670;28;20431;-74
2022/01/31 04:03:05;;;;;;;14.03;1.70;;;4.20;1.00;;;;;;5062529;28;20424;-74
2022/01/31 04:05:31;;;;;;;6.43;1.93;;;4.20;1.00;;;;;;5072949;28;20182;-74
2022/01/31 04:07:57;;;;;;;10.03;2.53;;;4.20;1.00;;;;;;5060449;28;21832;-74
2022/01/31 04:10:24;;;;;;;2.60;1.37;;;4.20;1.00;;;;;;5055368;28;20176;-74
2022/01/31 04:12:50;;;;;;;3.90;1.87;;;;;;;;;;5055957;28;20429;-74
2022/01/31 04:15:16;;;;;;;2.42;1.75;;;;;;;;;;5069955;28;20453;-74
2022/01/31 04:17:41;;;;;;;23.87;2.50;;;4.20;1.00;;;;;;5057419;28;20259;-74
2022/01/31 04:20:08;;;;;;;3.30;1.57;;;4.20;1.00;;;;;;5068395;28;20430;-75
2022/01/31 04:22:38;;;;;;;7.80;2.97;;;4.30;1.00;;;;;;5058960;28;20171;-75
2022/01/31 04:25:06;;;;;;;3.07;1.77;;;4.30;1.00;;;;;;5072686;28;20409;-75
2022/01/31 04:27:44;;;;;;;5.37;1.90;;;4.30;1.00;;;;;;5060621;28;20441;-75
2022/01/31 04:30:13;;;;;;;8.53;1.77;;;4.40;1.00;;;;;;5059515;28;20437;-75
2022/01/31 04:32:39;;;;;;;8.10;1.80;;;4.40;1.00;;;;;;5056586;28;20474;-75
2022/01/31 04:35:05;;;;;;;1.17;0.70;;;;;;;;;;5072880;28;20406;-75
2022/01/31 04:37:31;;;;;;;4.05;1.65;;;4.40;1.00;;;;;;5051550;28;20462;-75
2022/01/31 04:39:56;;;;;;;6.80;1.83;;;4.40;1.00;;;;;;5055148;28;20226;-75
2022/01/31 04:42:24;;;;;;;11.30;2.27;;;4.40;1.00;;;;;;5059710;28;20209;-75
2022/01/31 04:44:53;;;;;;;10.17;2.30;;;;;;;;;;5076569;28;20198;-75
2022/01/31 04:47:23;;;;;;;11.27;1.77;;;4.50;1.00;;;;;;5062700;28;20424;-75
2022/01/31 04:49:51;;;;;;;2.03;1.80;;;4.40;1.00;;;;;;5068403;28;20936;-75
2022/01/31 04:52:17;;;;;;;5.10;2.20;;;4.40;1.00;;;;;;5073275;28;20514;-76
2022/01/31 04:54:47;;;;;;;3.87;1.93;;;4.40;1.00;;;;;;5072914;28;20917;-75
2022/01/31 04:57:12;;;;;;;8.30;2.50;;;4.40;1.00;;;;;;5062349;28;20766;-75
2022/01/31 04:59:41;;;;;;;4.43;1.27;;;4.40;1.00;;;;;;5073398;28;20458;-75
2022/01/31 05:02:07;;;;;;;7.37;1.87;;;4.40;1.00;;;;;;5061929;28;20220;-75
2022/01/31 05:04:33;;;;;;;7.67;2.37;;;4.40;1.00;;;;;;5059649;28;20905;-75
2022/01/31 05:06:59;;;;;;;6.63;2.03;;;;;;;;;;5074965;28;20167;-75
2022/01/31 05:09:24;;;;;;;12.07;2.07;;;4.30;1.00;;;;;;5072789;28;20188;-75
2022/01/31 05:11:50;;;;;;;6.07;2.40;;;4.20;1.00;;;;;;5066013;28;20478;-75
2022/01/31 05:14:17;;;;;;;5.83;2.43;;;;;;;;;;5063375;28;20176;-75
2022/01/31 05:16:43;;;;;;;1.43;0.87;;;4.20;1.00;;;;;;5069720;28;20262;-76
2022/01/31 05:19:09;;;;;;;6.30;2.30;;;4.10;1.00;;;;;;5064018;28;20541;-74
2022/01/31 05:21:35;;;;;;;10.83;2.37;;;;;;;;;;5064420;28;20167;-74
2022/01/31 05:24:02;;;;;;;3.53;2.15;;;4.00;1.00;;;;;;5072689;28;20199;-74
2022/01/31 05:26:28;;;;;;;19.15;2.42;;;4.00;1.00;;;;;;5055497;28;20172;-74
2022/01/31 05:28:54;;;;;;;25.77;2.07;;;;;;;;;;5058253;28;20266;-74
2022/01/31 05:31:20;;;;;;;2.38;1.65;;;4.00;1.00;;;;;;5061696;28;20179;-74
2022/01/31 05:33:46;;;;;;;6.50;1.50;;;;;;;;;;5062821;28;20194;-74
2022/01/31 05:36:12;;;;;;;4.20;1.80;;;4.00;1.00;;;;;;5068292;28;20206;-75
2022/01/31 05:38:39;;;;;;;17.77;2.30;;;;;;;;;;5060368;28;20654;-75
2022/01/31 05:41:08;;;;;;;6.57;1.60;;;3.90;1.00;;;;;;5067187;28;20173;-75
2022/01/31 05:43:34;;;;;;;9.88;3.10;;;3.90;1.00;;;;;;5073687;28;20171;-75
2022/01/31 05:46:00;;;;;;;17.40;1.92;;;4.00;1.00;;;;;;5072319;28;20174;-75
2022/01/31 05:48:26;;;;;;;5.50;1.27;;;;;;;;;;5065115;28;20176;-75
2022/01/31 05:50:53;;;;;;;7.82;2.25;;;4.00;1.00;;;;;;5075177;28;20630;-74
2022/01/31 05:53:19;;;;;;;5.40;2.00;;;4.00;1.00;;;;;;5064458;28;20184;-74
2022/01/31 05:55:45;;;;;;;1.02;0.85;;;4.00;1.00;;;;;;5042161;28;20175;-74
2022/01/31 05:58:11;;;;;;;6.13;2.00;;;4.00;1.00;;;;;;5056435;28;20459;-74
2022/01/31 06:00:37;;;;;;;1.10;0.90;;;4.00;1.00;;;;;;5071749;28;20425;-75
2022/01/31 06:03:03;;;;;;;5.93;2.30;;;4.00;1.00;;;;;;5068046;28;20417;-74
2022/01/31 06:05:29;;;;;;;5.05;2.40;;;4.00;1.00;;;;;;5068775;28;20188;-75
2022/01/31 06:07:56;;;;;;;3.43;2.00;;;4.00;1.00;;;;;;5058093;28;20241;-75
2022/01/31 06:10:23;;;;;;;1.23;1.10;;;;;;;;;;5062044;28;20662;-83
2022/01/31 06:12:51;;;;;;;4.70;2.20;;;;;;;;;;5068096;28;20597;-75
2022/01/31 06:15:17;;;;;;;0.95;0.93;;;4.00;1.00;;;;;;5051105;28;20632;-75
2022/01/31 06:17:43;;;;;;;2.47;1.70;;;4.00;1.00;;;;;;5032259;28;20187;-75
2022/01/31 06:20:09;;;;;;;2.53;1.07;;;;;;;;;;5059341;28;20854;-75
2022/01/31 06:22:35;;;;;;;7.17;2.27;;;;;;;;;;5057749;28;20274;-75
2022/01/31 06:25:12;;;;;;;5.23;1.57;;;4.10;1.00;;;;;;5053394;28;20418;-74
2022/01/31 06:27:38;;;;;;;2.60;1.50;;;4.10;1.00;;;;;;5052605;28;20436;-74
2022/01/31 06:30:04;;;;;;;5.20;1.90;;;;;;;;;;5056864;28;20442;-74
2022/01/31 06:32:30;;;;;;;4.10;2.37;;;4.20;1.00;;;;;;5058943;28;20417;-74
2022/01/31 06:34:57;;;;;;;2.20;1.33;;;;;;;;;;5057626;28;20431;-74
2022/01/31 06:37:22;;;;;;;3.97;2.50;;;4.30;1.00;;;;;;5052971;28;20668;-74
2022/01/31 06:39:53;;;;;;;8.87;1.50;;;4.30;1.00;;;;;;5055636;28;20450;-75
2022/01/31 06:42:19;;;;;;;6.73;1.83;;;4.20;1.00;;;;;;5065945;28;20262;-75
2022/01/31 06:44:45;;;;;;;4.53;1.77;;;;;;;;;;5056899;28;20961;-75
2022/01/31 06:47:10;;;;;;;3.17;1.63;;;4.30;1.00;;;;;;5058340;28;20532;-74
2022/01/31 06:49:37;;;;;;;1.47;1.37;;;;;;;;;;5056193;28;20429;-74
2022/01/31 06:52:04;;;;;;;4.97;1.37;;;4.30;1.00;;;;;;5064852;28;20182;-74
2022/01/31 06:54:30;;;;;;;8.07;2.10;;;;;;;;;;5055741;28;20966;-74
2022/01/31 06:56:57;;;;;;;1.90;1.73;;;4.30;1.00;;;;;;5055930;28;20424;-74
2022/01/31 06:59:23;;;;;;;1.00;0.90;;;;;;;;;;5052625;28;20462;-74
2022/01/31 07:01:49;;;;;;;2.27;1.53;;;;;;;;;;5056853;28;20425;-75
2022/01/31 07:04:15;;;;;;;1.48;1.38;;;4.40;1.00;;;;;;5054959;28;20449;-74
2022/01/31 07:06:41;;;;;;;1.67;1.57;;;4.40;1.00;;;;;;5052010;28;20319;-74
2022/01/31 07:09:07;;;;;;;16.20;1.80;;;4.50;1.00;;;;;;5054973;28;20187;-74
2022/01/31 07:11:38;;;;;;;1.63;1.33;;;;;;;;;;5066377;28;20185;-75
2022/01/31 07:14:07;;;;;;;3.40;0.93;;;4.50;1.00;;;;;;5048551;28;20283;-75
2022/01/31 07:16:34;;;;;;;2.30;1.30;;;4.50;1.00;;;;;;5051317;28;20804;-75
2022/01/31 07:19:07;;;;;;;4.00;1.40;;;4.50;1.00;;;;;;5052143;28;20476;-75
2022/01/31 07:21:46;;;;;;;4.30;1.10;;;4.40;1.00;;;;;;5056205;28;20429;-74
2022/01/31 07:24:32;;;;;;;2.10;1.60;;;4.40;1.00;;;;;;5056354;28;20742;-74
2022/01/31 07:26:58;;;;;;;1.07;0.77;;;4.30;1.00;;;;;;5055234;28;20413;-74
2022/01/31 07:29:23;;;;;;;2.07;1.63;;;4.40;1.00;;;;;;5053169;28;20421;-74
2022/01/31 07:31:50;;;;;;;1.33;1.00;;;4.30;1.00;;;;;;5056118;28;20418;-74
2022/01/31 07:34:17;;;;;;;1.10;1.00;;;4.40;1.00;;;;;;5055626;28;20176;-74
2022/01/31 07:36:48;;;;;;;4.13;1.13;;;4.40;1.00;;;;;;5059747;28;20418;-74
2022/01/31 07:39:14;;;;;;;1.53;0.87;;;4.40;1.00;;;;;;5061643;28;20944;-74
2022/01/31 07:41:40;;;;;;;0.90;0.80;;;4.40;1.00;;;;;;5062141;28;20416;-75
2022/01/31 07:44:06;;;;;;;1.53;0.90;;;;;;;;;;5062111;28;20179;-75
2022/01/31 07:46:32;;;;;;;1.53;1.03;;;4.60;1.00;;;;;;5063362;28;20764;-75
2022/01/31 07:48:57;;;;;;;0.70;0.70;;;4.50;1.00;;;;;;5071217;28;20431;-75
2022/01/31 07:51:24;;;;;;;1.90;0.80;;;;;;;;;;5070727;28;20692;-74
2022/01/31 07:53:50;;;;;;;1.27;1.00;;;;;;;;;;5053051;28;20195;-74
2022/01/31 07:56:17;;;;;;;0.97;0.70;;;4.60;1.00;;;;;;5059232;28;20419;-75
2022/01/31 07:58:43;;;;;;;0.87;0.80;;;;;;;;;;5063218;28;20792;-75
2022/01/31 08:01:10;;;;;;;0.90;0.77;;;4.60;1.00;;;;;;5059580;28;20409;-75
2022/01/31 08:03:36;;;;;;;0.40;0.40;;;4.80;1.00;;;;;;5062760;28;20953;-74
2022/01/31 08:06:03;;;;;;;0.50;0.50;;;4.80;1.00;;;;;;5058749;28;20417;-74
2022/01/31 08:08:30;;;;;;;1.63;0.90;;;4.80;1.00;;;;;;5062140;28;20437;-74
2022/01/31 08:11:00;;;;;;;0.53;0.53;;;4.90;1.00;;;;;;5050880;28;20456;-75
2022/01/31 08:13:26;;;;;;;0.50;0.50;;;4.90;1.00;;;;;;5055480;28;20426;-74
2022/01/31 08:18:42;;;;;;;0.97;0.87;;;5.00;1.00;;;;;;5052922;28;20968;-75
2022/01/31 08:21:09;;;;;;;0.50;0.50;;;5.00;1.00;;;;;;5052604;28;20801;-74
2022/01/31 08:23:35;;;;;;;2.20;0.90;;;;;;;;;;5051489;28;20971;-75
2022/01/31 08:26:06;;;;;;;0.53;0.53;;;5.00;1.00;;;;;;5065691;28;20407;-75
2022/01/31 08:28:36;;;;;;;0.67;0.67;;;5.00;1.00;;;;;;5059955;28;20430;-75
2022/01/31 08:31:28;;;;;;;0.60;0.60;;;5.00;1.00;;;;;;5066655;28;20990;-75
2022/01/31 08:36:30;;;;;;;1.27;0.60;;;5.00;1.00;;;;;;5064158;28;20418;-75
2022/01/31 08:38:56;;;;;;;0.70;0.70;;;5.10;1.00;;;;;;5062609;28;20449;-75
2022/01/31 08:41:24;;;;;;;0.60;0.60;;;5.20;1.00;;;;;;5062375;28;20773;-75
2022/01/31 08:43:50;;;;;;;0.87;0.87;;;5.20;1.00;;;;;;5060159;28;21066;-75
2022/01/31 08:46:16;;;;;;;0.70;0.50;;;5.50;1.00;;;;;;5064240;28;20421;-74
2022/01/31 08:48:42;;;;;;;1.20;1.10;;;5.60;1.00;;;;;;5072369;28;20182;-75
2022/01/31 08:51:10;;;;;;;0.87;0.87;;;5.60;1.00;;;;;;5065137;28;20428;-74
2022/01/31 08:53:36;;;;;;;0.90;0.73;;;5.60;1.00;;;;;;5067591;28;20448;-75
2022/01/31 08:56:06;;;;;;;3.97;0.80;;;5.60;1.00;;;;;;5064072;28;20413;-75
2022/01/31 08:58:33;;;;;;;1.07;0.80;;;5.50;1.00;;;;;;5067007;28;20558;-74
2022/01/31 09:01:04;;;;;;;0.70;0.70;;;5.50;1.00;;;;;;5051068;28;20842;-74
2022/01/31 09:03:43;;;;;;;1.03;0.97;;;5.50;1.00;;;;;;5060879;28;20419;-74
2022/01/31 09:06:11;;;;;;;2.83;0.87;;;5.60;1.00;;;;;;5066093;28;20417;-74
2022/01/31 09:08:39;;;;;;;1.73;0.87;;;5.60;1.00;;;;;;5069474;28;20440;-75
2022/01/31 09:11:05;;;;;;;2.60;0.90;;;5.60;1.00;;;;;;5058498;28;20440;-75
2022/01/31 09:13:32;;;;;;;1.37;0.70;;;5.60;1.00;;;;;;5062930;28;20435;-75
2022/01/31 09:15:58;;;;;;;0.70;0.70;;;5.80;1.00;;;;;;5068173;28;20468;-75
2022/01/31 09:18:24;;;;;;;0.80;0.80;;;5.90;1.00;;;;;;5072602;28;20488;-75
2022/01/31 09:20:50;;;;;;;1.37;0.70;;;;;;;;;;5067273;28;20456;-75
2022/01/31 09:23:15;;;;;;;0.70;0.70;;;5.90;1.00;;;;;;5059165;28;20409;-74
2022/01/31 09:25:46;;;;;;;0.70;0.70;;;;;;;;;;5070194;28;20424;-75
2022/01/31 09:28:13;;;;;;;1.10;1.00;;;6.00;1.00;;;;;;5073386;28;20271;-75
2022/01/31 09:30:39;;;;;;;1.23;1.13;;;6.00;1.00;;;;;;5055134;28;20558;-75
2022/01/31 09:33:05;;;;;;;0.90;0.90;;;6.00;1.00;;;;;;5075555;28;20508;-75
2022/01/31 09:35:33;;;;;;;1.57;1.10;;;6.30;1.00;;;;;;5062260;28;20849;-75
2022/01/31 09:37:59;;;;;;;9.53;0.90;;;6.40;1.00;;;;;;5058031;28;20480;-74
2022/01/31 09:40:25;;;;;;;7.40;0.90;;;6.60;1.00;;;;;;5072096;28;20413;-74
2022/01/31 09:43:38;;;;;;;0.80;0.80;;;6.70;1.00;;;;;;5068819;28;20455;-74
2022/01/31 09:48:38;;;;;;;1.97;0.90;;;6.50;1.00;;;;;;5057969;28;20504;-74
2022/01/31 09:51:17;;;;;;;1.03;1.03;;;6.50;1.00;;;;;;5065991;28;20778;-75
2022/01/31 09:53:49;;;;;;;0.70;0.70;;;6.50;1.00;;;;;;5075019;28;20416;-75
2022/01/31 09:56:19;;;;;;;4.00;1.10;;;6.40;1.00;;;;;;5062475;28;20429;-76
2022/01/31 09:58:45;;;;;;;11.47;0.67;;;;;;;;;;5060830;28;20526;-75
2022/01/31 10:01:16;;;;;;;1.63;0.97;;;6.50;1.00;;;;;;5073120;28;20462;-74
2022/01/31 10:04:01;;;;;;;0.60;0.60;;;6.50;1.00;;;;;;5070233;28;20421;-74
2022/01/31 10:06:35;;;;;;;0.60;0.60;;;6.50;1.00;;;;;;5075059;28;20409;-74
2022/01/31 10:09:13;;;;;;;1.80;0.90;;;6.50;1.00;;;;;;5071165;28;20436;-74
2022/01/31 10:11:53;;;;;;;0.70;0.70;;;6.50;1.00;;;;;;5074941;28;20531;-75
2022/01/31 10:17:31;;;;;;;1.70;0.60;;;6.50;1.00;;;;;;5065327;28;20456;-75
2022/01/31 10:20:04;;;;;;;2.13;0.90;;;6.50;1.00;;;;;;5050933;28;20469;-74
2022/01/31 10:22:33;;;;;;;0.70;0.70;;;6.70;1.00;;;;;;5059200;28;20425;-75
2022/01/31 10:25:02;;;;;;;1.03;0.60;;;6.70;1.00;;;;;;5064983;28;20418;-75
2022/01/31 10:27:32;;;;;;;0.60;0.60;;;6.80;1.00;;;;;;5071489;28;20421;-74
2022/01/31 10:30:09;;;;;;;0.50;0.50;;;6.80;1.00;;;;;;5064900;28;20465;-74
2022/01/31 10:32:37;;;;;;;0.57;0.57;;;6.80;1.00;;;;;;5064552;28;21010;-75
2022/01/31 10:35:07;;;;;;;1.13;0.60;;;7.00;1.00;;;;;;5061598;28;20446;-75
2022/01/31 10:37:39;;;;;;;2.00;0.80;;;7.00;1.00;;;;;;5046161;28;20413;-75
2022/01/31 10:56:52;;;;;;;2.10;0.87;;;7.60;1.00;;;;;;5061339;28;20525;-75
2022/01/31 10:59:22;;;;;;;2.20;0.50;;;7.60;1.00;;;;;;5052259;28;20462;-75
2022/01/31 11:01:53;;;;;;;1.07;0.40;;;7.70;1.00;;;;;;5049284;28;20487;-75
2022/01/31 11:04:21;;;;;;;2.73;0.47;;;7.40;1.00;;;;;;5058164;28;20820;-75
2022/01/31 11:06:58;;;;;;;0.40;0.40;;;7.30;1.00;;;;;;5062452;28;20421;-73
2022/01/31 11:09:24;;;;;;;0.60;0.50;;;;;;;;;;5071545;28;20448;-74
2022/01/31 11:11:53;;;;;;;0.40;0.40;;;7.10;1.00;;;;;;5055768;28;20418;-76
2022/01/31 11:14:29;;;;;;;0.93;0.53;;;7.00;1.00;;;;;;5054621;28;20422;-76
2022/01/31 11:17:10;;;;;;;0.47;0.47;;;6.90;1.00;;;;;;5065709;28;20428;-75
2022/01/31 11:19:43;;;;;;;0.60;0.60;;;6.90;1.00;;;;;;5055539;28;20494;-75
2022/01/31 11:22:12;;;;;;;3.47;0.53;;;6.80;1.00;;;;;;5059768;28;20426;-75
2022/01/31 11:24:49;;;;;;;0.40;0.40;;;6.80;1.00;;;;;;5061751;28;20462;-75
2022/01/31 11:27:36;;;;;;;0.40;0.40;;;6.80;1.00;;;;;;5066238;28;20446;-75
2022/01/31 11:30:11;;;;;;;1.13;0.63;;;6.80;1.00;;;;;;5062678;28;20512;-75
2022/01/31 11:32:48;;;;;;;0.60;0.50;;;6.80;1.00;;;;;;5060769;28;20425;-75
2022/01/31 11:35:17;;;;;;;0.40;0.40;;;6.70;1.00;;;;;;5056615;28;20414;-75
2022/01/31 11:37:43;;;;;;;1.00;0.70;;;6.50;1.00;;;;;;5062795;28;20421;-76
2022/01/31 11:40:12;;;;;;;1.03;0.60;;;6.50;1.00;;;;;;5060446;28;20527;-75
2022/01/31 11:42:55;;;;;;;2.67;1.03;;;6.40;1.00;;;;;;5053278;28;20698;-74
2022/01/31 11:45:41;;;;;;;0.50;0.40;;;6.30;1.00;;;;;;5069582;28;20430;-76
2022/01/31 11:48:12;;;;;;;0.97;0.60;;;6.20;1.00;;;;;;5056896;28;20432;-75
2022/01/31 11:50:43;;;;;;;0.40;0.40;;;6.20;1.00;;;;;;5053758;28;20426;-76
2022/01/31 11:53:10;;;;;;;1.33;0.43;;;;;;;;;;5054166;28;20452;-74
2022/01/31 11:55:42;;;;;;;0.30;0.30;;;6.10;1.00;;;;;;5053959;28;20742;-74
2022/01/31 11:58:18;;;;;;;0.50;0.50;;;6.00;1.00;;;;;;5058232;28;20416;-76
2022/01/31 12:00:47;;;;;;;0.30;0.30;;;6.10;1.00;;;;;;5055119;28;20743;-74
2022/01/31 12:03:17;;;;;;;0.40;0.30;;;6.10;1.00;;;;;;5065008;28;20410;-73
2022/01/31 12:05:44;;;;;;;0.40;0.37;;;6.10;1.00;;;;;;5052064;28;20919;-74
2022/01/31 12:08:21;;;;;;;0.40;0.40;;;6.10;1.00;;;;;;5060834;28;20485;-75
2022/01/31 12:10:53;;;;;;;0.40;0.40;;;6.10;1.00;;;;;;5053374;28;20496;-74
2022/01/31 12:14:00;;;;;;;0.40;0.40;;;6.20;1.00;;;;;;5074539;28;20423;-74
2022/01/31 12:16:37;;;;;;;0.40;0.30;;;6.20;1.00;;;;;;4975800;28;20806;-74
2022/01/31 12:22:47;;;;;;;0.50;0.43;;;6.20;1.00;;;;;;4986240;28;20463;-75
2022/01/31 12:25:30;;;;;;;0.40;0.40;;;6.30;1.00;;;;;;4990581;28;20432;-74
2022/01/31 12:27:58;;;;;;;0.40;0.40;;;6.30;1.00;;;;;;4993517;28;20425;-74
2022/01/31 12:30:33;;;;;;;0.30;0.30;;;6.30;1.00;;;;;;5000742;28;20425;-75
2022/01/31 12:32:59;;;;;;;0.30;0.30;;;6.30;1.00;;;;;;5001476;28;20436;-74
2022/01/31 12:35:36;;;;;;;1.90;0.40;;;6.50;1.00;;;;;;4991749;28;20452;-74
2022/01/31 12:38:04;;;;;;;0.30;0.30;;;6.50;1.00;;;;;;5005677;28;20535;-74
2022/01/31 12:40:41;;;;;;;0.57;0.40;;;6.50;1.00;;;;;;4990929;28;20859;-75
2022/01/31 12:46:17;;;;;;;0.93;0.50;;;6.60;1.00;;;;;;4929166;29;20428;-75
2022/01/31 12:49:04;;;;;;;0.30;0.30;;;6.60;1.00;;;;;;4916529;29;20487;-75
2022/01/31 12:52:03;;;;;;;0.30;0.30;;;6.70;1.00;;;;;;4995319;28;20436;-76
2022/01/31 12:54:30;;;;;;;0.50;0.43;;;6.70;1.00;;;;;;4987864;28;20467;-74
2022/01/31 12:57:08;;;;;;;0.37;0.37;;;6.70;1.00;;;;;;4989227;28;20473;-74
2022/01/31 12:59:34;;;;;;;0.50;0.50;;;6.80;1.00;;;;;;4993507;28;20476;-74
2022/01/31 13:02:05;;;;;;;0.30;0.30;;;6.80;1.00;;;;;;5008088;28;20404;-74
2022/01/31 13:04:31;;;;;;;0.30;0.30;;;6.80;1.00;;;;;;4988673;28;20538;-75
2022/01/31 13:07:12;;;;;;;0.30;0.30;;;6.90;1.00;;;;;;5008479;28;20455;-74
2022/01/31 13:13:01;;;;;;;0.37;0.33;;;6.80;1.00;;;;;;4995507;28;20403;-77
2022/01/31 13:16:05;;;;;;;0.40;0.30;;;6.80;1.00;;;;;;4998602;28;20420;-77
2022/01/31 13:18:32;;;;;;;0.60;0.60;;;6.90;1.00;;;;;;5012479;28;20467;-76
2022/01/31 13:21:13;;;;;;;0.40;0.40;;;6.90;1.00;;;;;;4994732;28;20435;-76
2022/01/31 13:23:43;;;;;;;0.60;0.33;;;6.90;1.00;;;;;;5030004;28;20452;-76
2022/01/31 13:26:55;;;;;;;0.30;0.30;;;6.90;1.00;;;;;;5067918;28;20428;-76
2022/01/31 13:29:53;;;;;;;0.30;0.30;;;6.90;1.00;;;;;;5064449;28;20428;-77
2022/01/31 13:32:53;;;;;;;0.30;0.30;;;6.80;1.00;;;;;;5050904;28;20417;-76
2022/01/31 13:35:28;;;;;;;0.30;0.30;;;6.80;1.00;;;;;;5036507;28;20399;-75
2022/01/31 13:38:23;;;;;;;0.30;0.30;;;6.80;1.00;;;;;;5051192;28;20441;-76
2022/01/31 13:40:52;;;;;;;0.93;0.40;;;6.80;1.00;;;;;;5055577;28;20517;-74
2022/01/31 13:43:39;;;;;;;0.40;0.40;;;6.80;1.00;;;;;;5075328;28;20766;-74
2022/01/31 13:46:15;;;;;;;0.30;0.30;;;6.80;1.00;;;;;;5051018;28;20421;-74
2022/01/31 13:48:59;;;;;;;0.93;0.40;;;7.00;1.00;;;;;;5055526;28;20418;-75
2022/01/31 13:51:39;;;;;;;0.40;0.40;;;6.90;1.00;;;;;;5055195;28;20887;-75
2022/01/31 13:54:16;;;;;;;1.70;0.50;;;6.90;1.00;;;;;;5047206;28;20429;-76
2022/01/31 13:56:50;;;;;;;0.40;0.30;;;6.80;1.00;;;;;;5072038;28;20413;-76
2022/01/31 13:59:18;;;;;;;9.20;4.30;;;6.80;1.00;;;;;;5065947;28;20487;-76
2022/01/31 14:02:23;;;;;;;0.60;0.50;;;6.80;1.00;;;;;;5051145;28;20427;-76
2022/01/31 14:05:29;;;;;;;0.40;0.40;;;6.70;1.00;;;;;;5074829;28;20899;-76
2022/01/31 14:08:04;;;;;;;0.40;0.40;;;6.60;1.00;;;;;;5058123;28;20421;-75
2022/01/31 14:10:43;;;;;;;0.50;0.40;;;6.60;1.00;;;;;;5056022;28;20508;-75
2022/01/31 14:13:13;;;;;;;0.50;0.50;;;6.80;1.00;;;;;;5037997;28;20852;-75